createdAt,value
2019-05-30T00:00:29.256Z,2.57
2019-05-30T00:02:58.634Z,2.80
2019-05-30T00:05:27.612Z,2.40
2019-05-30T00:07:56.261Z,2.50
2019-05-30T00:10:24.910Z,2.40
2019-05-30T00:12:54.693Z,2.40
2019-05-30T00:15:23.384Z,2.67
2019-05-30T00:17:52.034Z,2.87
2019-05-30T00:20:20.680Z,1.80
2019-05-30T00:22:49.327Z,2.30
2019-05-30T00:25:17.972Z,2.47
2019-05-30T00:27:47.002Z,2.30
2019-05-30T00:30:24.220Z,2.60
2019-05-30T00:32:46.505Z,2.47
2019-05-30T00:35:15.155Z,2.10
2019-05-30T00:37:43.825Z,2.53
2019-05-30T00:40:12.581Z,2.93
2019-05-30T00:42:41.256Z,2.83
2019-05-30T00:45:20.780Z,2.47
2019-05-30T00:47:41.779Z,2.30
2019-05-30T00:50:11.424Z,2.70
2019-05-30T00:52:43.063Z,2.43
2019-05-30T00:55:11.704Z,2.30
2019-05-30T00:57:40.372Z,2.77
2019-05-30T01:00:09.856Z,2.53
2019-05-30T01:02:38.884Z,3.10
2019-05-30T01:05:10.232Z,2.63
2019-05-30T01:07:40.513Z,2.70
2019-05-30T01:10:09.557Z,2.70
2019-05-30T01:12:39.658Z,2.60
2019-05-30T01:15:09.798Z,2.93
2019-05-30T01:17:39.608Z,2.60
2019-05-30T01:20:11.980Z,2.90
2019-05-30T01:22:42.106Z,3.07
2019-05-30T01:25:15.405Z,2.60
2019-05-30T01:27:44.084Z,2.80
2019-05-30T01:30:13.133Z,2.70
2019-05-30T01:32:41.794Z,2.77
2019-05-30T01:35:10.729Z,3.00
2019-05-30T01:37:42.033Z,2.87
2019-05-30T01:40:12.485Z,3.00
2019-05-30T01:42:41.147Z,2.57
2019-05-30T01:45:11.336Z,2.80
2019-05-30T01:47:42.751Z,3.30
2019-05-30T01:50:13.176Z,3.73
2019-05-30T01:52:42.187Z,3.47
2019-05-30T01:55:12.087Z,2.97
2019-05-30T01:57:42.231Z,3.03
2019-05-30T02:00:21.274Z,3.03
2019-05-30T02:02:48.349Z,2.77
2019-05-30T02:05:18.632Z,2.90
2019-05-30T02:07:47.274Z,3.77
2019-05-30T02:10:16.123Z,3.13
2019-05-30T02:12:44.812Z,3.87
2019-05-30T02:15:13.544Z,2.80
2019-05-30T02:17:42.505Z,3.20
2019-05-30T02:20:11.356Z,3.17
2019-05-30T02:22:41.455Z,3.40
2019-05-30T02:25:10.606Z,3.63
2019-05-30T02:27:42.252Z,3.57
2019-05-30T02:30:30.160Z,3.80
2019-05-30T02:33:00.594Z,3.10
2019-05-30T02:35:29.428Z,3.10
2019-05-30T02:37:58.076Z,3.10
2019-05-30T02:40:27.019Z,3.67
2019-05-30T02:42:55.664Z,3.43
2019-05-30T02:45:24.640Z,3.50
2019-05-30T02:47:53.328Z,3.70
2019-05-30T02:50:22.079Z,3.10
2019-05-30T02:52:50.724Z,4.07
2019-05-30T02:55:19.399Z,3.10
2019-05-30T02:57:48.438Z,3.50
2019-05-30T03:00:18.442Z,3.07
2019-05-30T03:02:47.124Z,3.20
2019-05-30T03:05:15.871Z,3.37
2019-05-30T03:07:44.622Z,3.13
2019-05-30T03:10:15.180Z,3.77
2019-05-30T03:12:44.168Z,3.30
2019-05-30T03:15:15.611Z,2.60
2019-05-30T03:17:43.594Z,4.30
2019-05-30T03:20:21.900Z,3.40
2019-05-30T03:22:43.025Z,3.07
2019-05-30T03:25:15.379Z,3.60
2019-05-30T03:27:42.585Z,3.47
2019-05-30T03:30:22.004Z,3.37
2019-05-30T03:33:05.133Z,3.47
2019-05-30T03:35:23.954Z,3.97
2019-05-30T03:37:43.554Z,3.40
2019-05-30T03:40:12.293Z,3.27
2019-05-30T03:42:40.953Z,3.10
2019-05-30T03:45:14.033Z,4.07
2019-05-30T03:47:47.731Z,3.90
2019-05-30T03:50:17.931Z,3.40
2019-05-30T03:52:46.976Z,3.20
2019-05-30T03:55:18.295Z,3.70
2019-05-30T03:58:20.806Z,2.70
2019-05-30T04:00:58.208Z,3.30
2019-05-30T04:03:56.019Z,3.33
2019-05-30T04:06:36.631Z,3.10
2019-05-30T04:09:09.824Z,3.03
2019-05-30T04:11:53.716Z,3.20
2019-05-30T04:14:25.277Z,3.27
2019-05-30T04:16:53.858Z,2.90
2019-05-30T04:19:22.851Z,3.70
2019-05-30T04:21:51.427Z,3.73
2019-05-30T04:24:20.145Z,3.53
2019-05-30T04:26:48.802Z,2.70
2019-05-30T04:29:18.911Z,3.20
2019-05-30T04:31:47.696Z,3.87
2019-05-30T04:34:17.099Z,3.00
2019-05-30T04:36:46.638Z,3.13
2019-05-30T04:39:16.694Z,3.27
2019-05-30T04:41:45.794Z,3.20
2019-05-30T04:44:16.115Z,3.43
2019-05-30T04:46:44.823Z,2.77
2019-05-30T04:49:14.429Z,3.30
2019-05-30T04:51:43.839Z,3.40
2019-05-30T04:54:14.041Z,2.70
2019-05-30T04:56:42.871Z,3.50
2019-05-30T04:59:12.906Z,3.43
2019-05-30T05:01:41.638Z,4.57
2019-05-30T05:04:11.436Z,3.40
2019-05-30T05:06:40.558Z,2.57
2019-05-30T05:09:13.920Z,2.87
2019-05-30T05:11:42.741Z,2.87
2019-05-30T05:14:12.321Z,2.47
2019-05-30T05:16:41.031Z,2.40
2019-05-30T05:19:09.694Z,2.63
2019-05-30T05:21:38.937Z,2.87
2019-05-30T05:24:08.841Z,2.90
2019-05-30T05:26:37.386Z,2.77
2019-05-30T05:29:06.036Z,2.77
2019-05-30T05:31:34.700Z,2.40
2019-05-30T05:34:03.348Z,2.80
2019-05-30T05:36:32.307Z,3.00
2019-05-30T05:39:00.960Z,2.70
2019-05-30T05:41:29.560Z,3.40
2019-05-30T05:43:58.486Z,2.77
2019-05-30T05:46:28.511Z,2.53
2019-05-30T05:48:57.364Z,2.10
2019-05-30T05:51:25.988Z,3.67
2019-05-30T05:53:54.634Z,2.70
2019-05-30T05:56:23.294Z,2.27
2019-05-30T05:58:51.951Z,2.77
2019-05-30T06:01:21.404Z,2.80
2019-05-30T06:03:50.232Z,2.67
2019-05-30T06:06:19.210Z,2.63
2019-05-30T06:08:47.917Z,2.77
2019-05-30T06:11:16.719Z,2.60
2019-05-30T06:13:45.847Z,2.50
2019-05-30T06:16:14.415Z,2.23
2019-05-30T06:18:43.346Z,2.77
2019-05-30T06:21:11.989Z,2.20
2019-05-30T06:23:45.579Z,2.50
2019-05-30T06:26:12.870Z,2.00
2019-05-30T06:28:41.525Z,3.10
2019-05-30T06:31:13.228Z,2.60
2019-05-30T06:33:42.265Z,2.30
2019-05-30T06:36:13.791Z,2.40
2019-05-30T06:38:42.439Z,2.30
2019-05-30T06:41:11.096Z,2.43
2019-05-30T06:43:39.657Z,2.27
2019-05-30T06:46:11.400Z,2.23
2019-05-30T06:48:43.202Z,2.13
2019-05-30T06:51:14.571Z,2.13
2019-05-30T06:53:42.299Z,2.60
2019-05-30T06:56:14.026Z,2.00
2019-05-30T06:58:48.761Z,2.23
2019-05-30T07:01:13.261Z,1.80
2019-05-30T07:03:42.416Z,2.17
2019-05-30T07:06:11.693Z,2.50
2019-05-30T07:08:42.425Z,3.08
2019-05-30T07:11:11.306Z,1.97
2019-05-30T07:13:41.448Z,2.10
2019-05-30T07:16:13.482Z,1.63
2019-05-30T07:18:42.296Z,3.15
2019-05-30T07:21:14.121Z,3.60
2019-05-30T07:23:43.145Z,2.20
2019-05-30T07:26:11.798Z,2.27
2019-05-30T07:28:41.924Z,1.73
2019-05-30T07:31:10.912Z,1.37
2019-05-30T07:33:39.592Z,1.77
2019-05-30T07:36:11.049Z,2.03
2019-05-30T07:38:41.407Z,1.77
2019-05-30T07:41:12.750Z,1.70
2019-05-30T07:43:41.476Z,1.50
2019-05-30T07:46:12.878Z,1.37
2019-05-30T07:48:41.552Z,1.23
2019-05-30T07:51:10.206Z,1.97
2019-05-30T07:53:40.516Z,1.60
2019-05-30T07:56:12.128Z,1.53
2019-05-30T07:58:43.955Z,2.50
2019-05-30T08:01:12.665Z,1.90
2019-05-30T08:03:41.346Z,1.70
2019-05-30T08:06:13.058Z,1.67
2019-05-30T08:08:41.709Z,1.33
2019-05-30T08:11:10.502Z,1.40
2019-05-30T08:13:39.466Z,1.73
2019-05-30T08:16:10.521Z,1.90
2019-05-30T08:18:42.214Z,1.40
2019-05-30T08:21:13.853Z,1.70
2019-05-30T08:23:42.501Z,1.90
2019-05-30T08:26:11.150Z,1.60
2019-05-30T08:28:42.726Z,1.50
2019-05-30T08:31:11.610Z,1.40
2019-05-30T08:33:40.218Z,1.30
2019-05-30T08:36:08.924Z,2.17
2019-05-30T08:38:39.443Z,1.67
2019-05-30T08:41:10.621Z,1.57
2019-05-30T08:43:41.992Z,2.13
2019-05-30T08:46:12.132Z,2.10
2019-05-30T08:48:43.683Z,1.90
2019-05-30T08:51:12.381Z,1.43
2019-05-30T08:53:41.327Z,1.97
2019-05-30T08:56:10.081Z,1.83
2019-05-30T08:58:40.927Z,1.70
2019-05-30T09:01:09.705Z,1.93
2019-05-30T09:03:42.161Z,1.30
2019-05-30T09:06:13.591Z,1.60
2019-05-30T09:08:42.252Z,1.77
2019-05-30T09:11:13.640Z,1.50
2019-05-30T09:13:42.700Z,1.77
2019-05-30T09:16:11.333Z,1.60
2019-05-30T09:18:41.609Z,1.20
2019-05-30T09:21:10.594Z,1.20
2019-05-30T09:23:42.331Z,1.40
2019-05-30T09:26:12.306Z,1.30
2019-05-30T09:28:44.256Z,1.17
2019-05-30T09:31:12.995Z,1.63
2019-05-30T09:33:42.727Z,1.20
2019-05-30T09:36:13.460Z,1.23
2019-05-30T09:38:41.857Z,1.73
2019-05-30T09:41:11.101Z,1.50
2019-05-30T09:43:43.366Z,1.23
2019-05-30T09:46:13.544Z,1.30
2019-05-30T09:48:44.916Z,1.13
2019-05-30T09:51:13.535Z,1.40
2019-05-30T09:53:43.975Z,1.30
2019-05-30T09:56:12.703Z,1.30
2019-05-30T09:58:43.945Z,1.10
2019-05-30T10:01:12.781Z,1.10
2019-05-30T10:03:43.070Z,0.90
2019-05-30T10:06:28.175Z,0.80
2019-05-30T10:08:43.936Z,1.47
2019-05-30T10:11:16.004Z,0.90
2019-05-30T10:13:44.017Z,1.00
2019-05-30T10:16:13.807Z,1.17
2019-05-30T10:18:42.465Z,0.90
2019-05-30T10:21:11.171Z,1.20
2019-05-30T10:23:40.114Z,1.30
2019-05-30T10:26:08.814Z,1.20
2019-05-30T10:28:37.565Z,1.07
2019-05-30T10:31:06.238Z,1.10
2019-05-30T10:33:35.204Z,1.23
2019-05-30T10:36:04.858Z,1.00
2019-05-30T10:38:34.280Z,0.93
2019-05-30T10:41:03.209Z,1.40
2019-05-30T10:43:31.858Z,1.17
2019-05-30T10:46:00.530Z,1.23
2019-05-30T10:48:29.742Z,1.07
2019-05-30T10:50:58.416Z,1.10
2019-05-30T10:53:27.414Z,1.20
2019-05-30T10:55:56.496Z,1.23
2019-05-30T10:58:25.279Z,1.30
2019-05-30T11:00:58.190Z,1.20
2019-05-30T11:03:28.104Z,1.60
2019-05-30T11:06:15.916Z,1.20
2019-05-30T11:08:44.659Z,1.20
2019-05-30T11:11:13.652Z,1.60
2019-05-30T11:13:45.344Z,1.10
2019-05-30T11:16:13.984Z,1.10
2019-05-30T11:18:42.919Z,1.20
2019-05-30T11:21:14.607Z,1.20
2019-05-30T11:23:43.323Z,1.30
2019-05-30T11:26:13.440Z,1.10
2019-05-30T11:28:43.487Z,1.07
2019-05-30T11:31:15.133Z,1.30
2019-05-30T11:33:43.843Z,1.37
2019-05-30T11:36:13.509Z,1.47
2019-05-30T11:38:45.523Z,1.33
2019-05-30T11:41:14.140Z,1.27
2019-05-30T11:43:42.779Z,1.50
2019-05-30T11:46:14.369Z,1.10
2019-05-30T11:48:43.023Z,1.20
2019-05-30T11:51:11.668Z,1.47
2019-05-30T11:53:40.359Z,1.33
2019-05-30T11:56:11.261Z,1.20
2019-05-30T11:58:39.602Z,1.00
2019-05-30T12:01:08.386Z,1.07
2019-05-30T12:03:37.107Z,1.00
2019-05-30T12:06:06.123Z,1.20
2019-05-30T12:08:34.963Z,1.17
2019-05-30T12:11:03.666Z,1.20
2019-05-30T12:13:32.392Z,1.33
2019-05-30T12:16:01.859Z,1.50
2019-05-30T12:18:30.662Z,1.00
2019-05-30T12:20:59.830Z,1.30
2019-05-30T12:23:28.449Z,1.20
2019-05-30T12:25:58.023Z,1.67
2019-05-30T12:28:26.856Z,1.30
2019-05-30T12:31:01.023Z,1.27
2019-05-30T12:33:26.019Z,1.20
2019-05-30T12:35:56.323Z,1.67
2019-05-30T12:38:25.166Z,1.30
2019-05-30T12:40:54.727Z,1.23
2019-05-30T12:43:23.820Z,1.30
2019-05-30T12:45:52.886Z,1.20
2019-05-30T12:48:21.753Z,1.20
2019-05-30T12:50:50.519Z,1.37
2019-05-30T12:53:19.311Z,1.40
2019-05-30T12:55:48.351Z,1.30
2019-05-30T12:58:17.072Z,1.40
2019-05-30T13:00:45.817Z,1.10
2019-05-30T13:03:14.498Z,1.40
2019-05-30T13:05:43.210Z,1.10
2019-05-30T13:08:21.351Z,1.63
2019-05-30T13:10:45.441Z,1.40
2019-05-30T13:13:14.179Z,1.70
2019-05-30T13:15:42.888Z,1.13
2019-05-30T13:18:14.133Z,1.83
2019-05-30T13:20:42.979Z,1.40
2019-05-30T13:23:11.761Z,1.47
2019-05-30T13:25:40.521Z,1.53
2019-05-30T13:28:09.193Z,1.27
2019-05-30T13:30:37.941Z,1.57
2019-05-30T13:33:06.910Z,1.23
2019-05-30T13:35:35.614Z,1.03
2019-05-30T13:38:05.304Z,1.40
2019-05-30T13:40:34.314Z,1.70
2019-05-30T13:43:03.962Z,2.07
2019-05-30T13:45:32.967Z,1.60
2019-05-30T13:48:02.518Z,1.70
2019-05-30T13:50:31.281Z,1.33
2019-05-30T13:53:00.926Z,1.70
2019-05-30T13:55:29.841Z,1.30
2019-05-30T13:57:59.522Z,1.23
2019-05-30T14:00:28.292Z,3.17
2019-05-30T14:02:57.223Z,1.40
2019-05-30T14:05:26.626Z,1.20
2019-05-30T14:07:55.335Z,1.40
2019-05-30T14:10:23.983Z,1.40
2019-05-30T14:12:52.698Z,1.30
2019-05-30T14:15:22.848Z,1.50
2019-05-30T14:17:51.587Z,1.63
2019-05-30T14:20:20.758Z,1.47
2019-05-30T14:22:49.437Z,1.67
2019-05-30T14:25:19.794Z,1.60
2019-05-30T14:27:48.547Z,1.67
2019-05-30T14:30:17.528Z,1.20
2019-05-30T14:32:46.180Z,1.67
2019-05-30T14:35:15.052Z,2.00
2019-05-30T14:37:43.985Z,1.30
2019-05-30T14:40:14.569Z,1.40
2019-05-30T14:42:43.297Z,1.43
2019-05-30T14:45:14.891Z,1.70
2019-05-30T14:47:43.696Z,1.30
2019-05-30T14:50:17.141Z,1.30
2019-05-30T14:52:46.045Z,1.37
2019-05-30T14:55:15.058Z,1.73
2019-05-30T14:57:44.486Z,2.63
2019-05-30T15:00:17.515Z,2.00
2019-05-30T15:02:46.519Z,2.43
2019-05-30T15:05:15.769Z,1.17
2019-05-30T15:07:44.557Z,1.70
2019-05-30T15:10:13.704Z,1.27
2019-05-30T15:12:45.178Z,1.50
2019-05-30T15:15:18.188Z,1.30
2019-05-30T15:17:46.516Z,1.40
2019-05-30T15:20:15.575Z,1.37
2019-05-30T15:22:44.461Z,1.23
2019-05-30T15:25:16.495Z,1.30
2019-05-30T15:27:44.446Z,1.43
2019-05-30T15:30:14.735Z,1.30
2019-05-30T15:32:43.673Z,1.20
2019-05-30T15:35:13.053Z,1.57
2019-05-30T15:37:41.753Z,1.40
2019-05-30T15:40:13.051Z,1.20
2019-05-30T15:42:41.962Z,1.50
2019-05-30T15:45:13.869Z,1.60
2019-05-30T15:47:43.377Z,1.90
2019-05-30T15:50:15.243Z,3.57
2019-05-30T15:52:44.196Z,2.23
2019-05-30T15:55:13.328Z,1.50
2019-05-30T15:57:43.588Z,1.80
2019-05-30T16:00:16.101Z,2.60
2019-05-30T16:02:44.930Z,1.53
2019-05-30T16:05:14.564Z,1.20
2019-05-30T16:07:43.623Z,1.60
2019-05-30T16:10:15.329Z,1.57
2019-05-30T16:12:44.326Z,1.50
2019-05-30T16:15:13.505Z,1.83
2019-05-30T16:17:45.462Z,1.80
2019-05-30T16:20:15.846Z,1.60
2019-05-30T16:22:44.645Z,1.33
2019-05-30T16:25:13.716Z,1.57
2019-05-30T16:27:42.516Z,1.50
2019-05-30T16:30:19.673Z,1.70
2019-05-30T16:32:45.199Z,1.60
2019-05-30T16:35:14.079Z,1.93
2019-05-30T16:37:43.356Z,1.63
2019-05-30T16:40:14.544Z,1.60
2019-05-30T16:42:43.466Z,1.70
2019-05-30T16:45:20.318Z,1.60
2019-05-30T16:47:49.034Z,2.03
2019-05-30T16:50:16.511Z,2.07
2019-05-30T16:52:45.235Z,2.10
2019-05-30T16:55:15.278Z,1.80
2019-05-30T16:57:43.989Z,1.70
2019-05-30T17:00:15.858Z,1.60
2019-05-30T17:02:44.615Z,1.63
2019-05-30T17:05:13.435Z,1.60
2019-05-30T17:07:43.833Z,1.87
2019-05-30T17:10:23.406Z,2.50
2019-05-30T17:12:44.223Z,2.13
2019-05-30T17:15:15.654Z,2.27
2019-05-30T17:17:44.621Z,2.40
2019-05-30T17:20:16.490Z,2.53
2019-05-30T17:22:45.482Z,2.70
2019-05-30T17:25:14.482Z,1.63
2019-05-30T17:27:43.151Z,1.90
2019-05-30T17:30:13.208Z,2.70
2019-05-30T17:32:42.033Z,1.73
2019-05-30T17:35:11.980Z,1.90
2019-05-30T17:37:43.980Z,1.90
2019-05-30T17:40:13.593Z,1.70
2019-05-30T17:42:45.318Z,1.67
2019-05-30T17:45:14.829Z,2.67
2019-05-30T17:47:43.577Z,2.20
2019-05-30T17:50:16.899Z,1.80
2019-05-30T17:52:45.626Z,1.80
2019-05-30T17:55:15.167Z,1.80
2019-05-30T17:57:43.992Z,2.80
2019-05-30T18:00:15.670Z,2.07
2019-05-30T18:02:44.383Z,1.90
2019-05-30T18:05:13.725Z,2.17
2019-05-30T18:07:45.114Z,2.00
2019-05-30T18:10:14.362Z,2.20
2019-05-30T18:12:43.021Z,2.00
2019-05-30T18:15:14.519Z,2.30
2019-05-30T18:17:43.355Z,2.10
2019-05-30T18:20:14.025Z,2.43
2019-05-30T18:22:42.859Z,2.30
2019-05-30T18:25:12.357Z,2.13
2019-05-30T18:27:41.216Z,2.30
2019-05-30T18:30:11.018Z,2.70
2019-05-30T18:32:42.964Z,3.40
2019-05-30T18:48:55.060Z,2.47
2019-05-30T18:51:26.015Z,3.53
2019-05-30T18:53:54.861Z,2.47
2019-05-30T18:56:24.555Z,2.10
2019-05-30T18:58:53.302Z,2.30
2019-05-30T19:01:23.659Z,2.83
2019-05-30T19:03:55.463Z,2.60
2019-05-30T19:06:25.550Z,2.70
2019-05-30T19:08:54.681Z,2.37
2019-05-30T19:11:28.124Z,2.40
2019-05-30T19:13:55.369Z,2.10
2019-05-30T19:16:28.385Z,3.00
2019-05-30T19:18:57.205Z,2.43
2019-05-30T19:21:25.955Z,2.77
2019-05-30T19:23:55.197Z,3.20
2019-05-30T19:26:30.428Z,2.67
2019-05-30T19:28:59.205Z,2.63
2019-05-30T19:31:28.537Z,2.33
2019-05-30T19:33:57.456Z,2.33
2019-05-30T19:36:26.849Z,2.60
2019-05-30T19:38:55.720Z,2.70
2019-05-30T19:41:24.441Z,2.40
2019-05-30T19:43:56.775Z,2.40
2019-05-30T19:46:25.509Z,1.97
2019-05-30T19:48:54.310Z,2.37
2019-05-30T19:51:24.463Z,2.30
2019-05-30T19:53:56.174Z,2.13
2019-05-30T19:56:24.882Z,2.33
2019-05-30T19:58:53.510Z,2.07
2019-05-30T20:01:22.536Z,2.20
2019-05-30T20:03:53.716Z,2.30
2019-05-30T20:06:27.093Z,2.57
2019-05-30T20:08:56.148Z,2.30
2019-05-30T20:11:25.002Z,2.57
2019-05-30T20:13:55.198Z,1.73
2019-05-30T20:16:26.712Z,1.93
2019-05-30T20:18:55.516Z,2.37
2019-05-30T20:21:24.227Z,1.90
2019-05-30T20:23:59.058Z,1.97
2019-05-30T20:26:24.945Z,1.97
2019-05-30T20:28:53.676Z,1.83
2019-05-30T20:31:25.444Z,2.27
2019-05-30T20:33:54.133Z,1.97
2019-05-30T20:36:22.831Z,1.63
2019-05-30T20:38:52.589Z,1.77
2019-05-30T20:41:23.661Z,2.23
2019-05-30T20:43:53.829Z,2.60
2019-05-30T20:46:25.589Z,2.10
2019-05-30T20:48:54.345Z,2.03
2019-05-30T20:51:24.599Z,2.10
2019-05-30T20:53:56.442Z,2.00
2019-05-30T20:56:25.116Z,2.40
2019-05-30T20:58:55.274Z,1.98
2019-05-30T21:01:26.966Z,2.10
2019-05-30T21:03:56.094Z,2.10
2019-05-30T21:06:24.757Z,2.53
2019-05-30T21:08:53.820Z,2.40
2019-05-30T21:11:25.828Z,2.47
2019-05-30T21:13:54.999Z,2.40
2019-05-30T21:16:24.038Z,2.03
2019-05-30T21:18:53.134Z,2.10
2019-05-30T21:21:23.621Z,2.10
2019-05-30T21:23:52.253Z,2.03
2019-05-30T21:26:21.066Z,2.43
2019-05-30T21:28:49.896Z,3.00
2019-05-30T21:31:18.912Z,2.50
2019-05-30T21:33:48.559Z,2.00
2019-05-30T21:36:17.299Z,2.70
2019-05-30T21:38:46.154Z,2.63
2019-05-30T21:41:14.913Z,2.90
2019-05-30T21:43:44.544Z,2.70
2019-05-30T21:46:13.475Z,2.93
2019-05-30T21:48:42.894Z,2.67
2019-05-30T21:51:11.715Z,2.80
2019-05-30T21:53:41.484Z,2.50
2019-05-30T21:56:12.929Z,2.40
2019-05-30T21:58:42.063Z,2.53
2019-05-30T22:01:25.839Z,2.67
2019-05-30T22:03:54.623Z,2.60
2019-05-30T22:06:26.340Z,2.33
2019-05-30T22:08:55.155Z,6.10
2019-05-30T22:11:25.412Z,3.57
2019-05-30T22:13:56.999Z,3.30
2019-05-30T22:16:25.814Z,3.00
2019-05-30T22:18:55.534Z,3.10
2019-05-30T22:21:24.195Z,2.57
2019-05-30T22:23:53.018Z,3.00
2019-05-30T22:26:21.945Z,3.23
2019-05-30T22:28:50.620Z,3.17
2019-05-30T22:31:19.293Z,3.53
2019-05-30T22:33:48.781Z,3.37
2019-05-30T22:36:17.946Z,2.77
2019-05-30T22:38:46.837Z,3.13
2019-05-30T22:41:15.523Z,3.40
2019-05-30T22:43:44.170Z,2.70
2019-05-30T22:46:12.914Z,3.07
2019-05-30T22:48:41.629Z,3.20
2019-05-30T22:51:10.754Z,3.50
2019-05-30T22:53:39.477Z,2.87
2019-05-30T22:56:08.291Z,2.77
2019-05-30T22:58:37.040Z,2.97
2019-05-30T23:01:05.937Z,3.40
2019-05-30T23:03:34.647Z,3.40
2019-05-30T23:06:03.304Z,3.33
2019-05-30T23:08:31.952Z,3.40
2019-05-30T23:11:00.897Z,3.30
2019-05-30T23:13:40.116Z,3.90
2019-05-30T23:16:00.099Z,2.77
2019-05-30T23:18:28.811Z,3.33
2019-05-30T23:20:57.462Z,3.10
2019-05-30T23:23:26.119Z,3.50
2019-05-30T23:25:55.418Z,3.23
2019-05-30T23:28:24.814Z,3.13
2019-05-30T23:30:53.951Z,3.87
2019-05-30T23:33:23.265Z,3.50
2019-05-30T23:35:54.559Z,3.40
2019-05-30T23:38:23.474Z,3.37
2019-05-30T23:40:52.967Z,2.97
2019-05-30T23:43:21.846Z,3.33
2019-05-30T23:45:51.373Z,3.57
2019-05-30T23:48:20.118Z,3.90
2019-05-30T23:50:49.756Z,3.80
2019-05-30T23:53:18.408Z,3.50
2019-05-30T23:55:47.132Z,3.10
2019-05-30T23:58:18.620Z,3.50
